sensor_id;sensor_type;location;lat;lon;timestamp;temperature;humidity
418;DHT22;49;48.530;9.200;2024-01-30T00:01:12;12.00;13.40
418;DHT22;49;48.530;9.200;2024-01-30T00:03:38;11.40;9.40
418;DHT22;49;48.530;9.200;2024-01-30T00:06:06;10.90;9.80
418;DHT22;49;48.530;9.200;2024-01-30T00:08:33;11.00;15.30
418;DHT22;49;48.530;9.200;2024-01-30T00:11:01;11.50;14.70
418;DHT22;49;48.530;9.200;2024-01-30T00:13:28;11.80;13.40
418;DHT22;49;48.530;9.200;2024-01-30T00:15:55;11.60;10.10
418;DHT22;49;48.530;9.200;2024-01-30T00:18:22;11.80;13.20
418;DHT22;49;48.530;9.200;2024-01-30T00:20:48;12.10;13.50
418;DHT22;49;48.530;9.200;2024-01-30T00:23:15;12.00;12.40
418;DHT22;49;48.530;9.200;2024-01-30T00:25:42;11.90;12.30
418;DHT22;49;48.530;9.200;2024-01-30T00:28:10;12.10;13.30
418;DHT22;49;48.530;9.200;2024-01-30T00:30:37;12.30;11.80
418;DHT22;49;48.530;9.200;2024-01-30T00:33:04;12.30;12.00
418;DHT22;49;48.530;9.200;2024-01-30T00:35:31;12.50;12.00
418;DHT22;49;48.530;9.200;2024-01-30T00:37:58;12.50;11.40
418;DHT22;49;48.530;9.200;2024-01-30T00:40:25;12.40;10.30
418;DHT22;49;48.530;9.200;2024-01-30T00:42:52;12.00;11.30
418;DHT22;49;48.530;9.200;2024-01-30T00:45:20;11.60;9.60
418;DHT22;49;48.530;9.200;2024-01-30T00:47:47;11.70;12.20
418;DHT22;49;48.530;9.200;2024-01-30T00:50:14;11.60;12.50
418;DHT22;49;48.530;9.200;2024-01-30T00:52:41;11.20;9.50
418;DHT22;49;48.530;9.200;2024-01-30T00:55:10;11.40;14.10
418;DHT22;49;48.530;9.200;2024-01-30T00:57:37;11.60;11.20
418;DHT22;49;48.530;9.200;2024-01-30T01:00:05;11.70;13.20
418;DHT22;49;48.530;9.200;2024-01-30T01:02:35;11.70;10.50
418;DHT22;49;48.530;9.200;2024-01-30T01:05:02;11.60;12.70
418;DHT22;49;48.530;9.200;2024-01-30T01:07:30;11.70;13.30
418;DHT22;49;48.530;9.200;2024-01-30T01:09:57;11.70;9.20
418;DHT22;49;48.530;9.200;2024-01-30T01:12:23;11.00;9.30
418;DHT22;49;48.530;9.200;2024-01-30T01:14:51;11.10;13.70
418;DHT22;49;48.530;9.200;2024-01-30T01:17:17;11.20;12.80
418;DHT22;49;48.530;9.200;2024-01-30T01:19:46;11.50;12.90
418;DHT22;49;48.530;9.200;2024-01-30T01:22:13;11.80;13.00
418;DHT22;49;48.530;9.200;2024-01-30T01:24:40;12.10;12.50
418;DHT22;49;48.530;9.200;2024-01-30T01:27:07;12.20;12.40
418;DHT22;49;48.530;9.200;2024-01-30T01:29:33;12.30;12.10
418;DHT22;49;48.530;9.200;2024-01-30T01:32:00;12.40;11.90
418;DHT22;49;48.530;9.200;2024-01-30T01:34:27;12.30;11.10
418;DHT22;49;48.530;9.200;2024-01-30T01:36:55;12.40;11.40
418;DHT22;49;48.530;9.200;2024-01-30T01:39:22;12.60;11.40
418;DHT22;49;48.530;9.200;2024-01-30T01:41:49;12.30;8.80
418;DHT22;49;48.530;9.200;2024-01-30T01:44:17;12.10;10.50
418;DHT22;49;48.530;9.200;2024-01-30T01:46:44;12.00;10.50
418;DHT22;49;48.530;9.200;2024-01-30T01:49:12;11.30;9.80
418;DHT22;49;48.530;9.200;2024-01-30T01:51:41;10.90;10.20
418;DHT22;49;48.530;9.200;2024-01-30T01:54:11;11.20;11.90
418;DHT22;49;48.530;9.200;2024-01-30T01:56:39;11.70;12.80
418;DHT22;49;48.530;9.200;2024-01-30T01:59:07;11.90;12.40
418;DHT22;49;48.530;9.200;2024-01-30T02:01:34;12.10;11.50
418;DHT22;49;48.530;9.200;2024-01-30T02:04:02;12.10;11.50
418;DHT22;49;48.530;9.200;2024-01-30T02:06:30;12.10;11.70
418;DHT22;49;48.530;9.200;2024-01-30T02:08:57;12.30;10.80
418;DHT22;49;48.530;9.200;2024-01-30T02:11:25;12.30;9.80
418;DHT22;49;48.530;9.200;2024-01-30T02:13:53;12.10;10.30
418;DHT22;49;48.530;9.200;2024-01-30T02:16:20;11.90;9.20
418;DHT22;49;48.530;9.200;2024-01-30T02:18:46;11.80;10.50
418;DHT22;49;48.530;9.200;2024-01-30T02:21:16;12.00;11.20
418;DHT22;49;48.530;9.200;2024-01-30T02:23:43;11.90;11.50
418;DHT22;49;48.530;9.200;2024-01-30T02:26:11;12.00;10.90
418;DHT22;49;48.530;9.200;2024-01-30T02:28:38;12.20;11.80
418;DHT22;49;48.530;9.200;2024-01-30T02:31:05;12.30;11.50
418;DHT22;49;48.530;9.200;2024-01-30T02:33:32;12.50;10.90
418;DHT22;49;48.530;9.200;2024-01-30T02:35:59;12.30;9.60
418;DHT22;49;48.530;9.200;2024-01-30T02:38:27;12.20;9.90
418;DHT22;49;48.530;9.200;2024-01-30T02:40:54;12.10;11.70
418;DHT22;49;48.530;9.200;2024-01-30T02:43:22;11.70;6.10
418;DHT22;49;48.530;9.200;2024-01-30T02:45:49;10.70;9.50
418;DHT22;49;48.530;9.200;2024-01-30T02:48:16;10.50;9.60
418;DHT22;49;48.530;9.200;2024-01-30T02:50:43;10.20;9.70
418;DHT22;49;48.530;9.200;2024-01-30T02:53:10;10.10;10.40
418;DHT22;49;48.530;9.200;2024-01-30T02:55:38;9.70;11.10
418;DHT22;49;48.530;9.200;2024-01-30T02:58:05;9.60;13.80
418;DHT22;49;48.530;9.200;2024-01-30T03:00:32;9.70;15.30
418;DHT22;49;48.530;9.200;2024-01-30T03:02:59;9.80;14.00
418;DHT22;49;48.530;9.200;2024-01-30T03:05:26;10.50;13.80
418;DHT22;49;48.530;9.200;2024-01-30T03:07:52;10.90;14.70
418;DHT22;49;48.530;9.200;2024-01-30T03:10:19;11.40;13.80
418;DHT22;49;48.530;9.200;2024-01-30T03:12:48;11.30;11.90
418;DHT22;49;48.530;9.200;2024-01-30T03:15:14;11.70;12.60
418;DHT22;49;48.530;9.200;2024-01-30T03:17:41;11.90;12.30
418;DHT22;49;48.530;9.200;2024-01-30T03:20:09;11.80;10.40
418;DHT22;49;48.530;9.200;2024-01-30T03:22:39;11.40;9.20
418;DHT22;49;48.530;9.200;2024-01-30T03:25:07;11.60;11.90
418;DHT22;49;48.530;9.200;2024-01-30T03:27:33;11.50;12.30
418;DHT22;49;48.530;9.200;2024-01-30T03:30:02;11.90;12.30
418;DHT22;49;48.530;9.200;2024-01-30T03:32:28;12.00;12.40
418;DHT22;49;48.530;9.200;2024-01-30T03:34:55;12.10;11.70
418;DHT22;49;48.530;9.200;2024-01-30T03:37:23;11.80;10.80
418;DHT22;49;48.530;9.200;2024-01-30T03:39:50;11.90;11.00
418;DHT22;49;48.530;9.200;2024-01-30T03:42:17;12.00;10.80
418;DHT22;49;48.530;9.200;2024-01-30T03:44:44;11.70;10.60
418;DHT22;49;48.530;9.200;2024-01-30T03:47:12;11.80;11.90
418;DHT22;49;48.530;9.200;2024-01-30T03:49:39;11.80;9.00
418;DHT22;49;48.530;9.200;2024-01-30T03:52:06;11.70;11.80
418;DHT22;49;48.530;9.200;2024-01-30T03:54:33;11.70;11.10
418;DHT22;49;48.530;9.200;2024-01-30T03:57:00;11.70;11.00
418;DHT22;49;48.530;9.200;2024-01-30T03:59:27;11.80;11.20
418;DHT22;49;48.530;9.200;2024-01-30T04:01:55;11.50;11.60
418;DHT22;49;48.530;9.200;2024-01-30T04:04:23;11.30;10.50
418;DHT22;49;48.530;9.200;2024-01-30T04:06:50;11.50;11.40
418;DHT22;49;48.530;9.200;2024-01-30T04:09:17;11.50;12.10
418;DHT22;49;48.530;9.200;2024-01-30T04:11:44;11.10;7.90
418;DHT22;49;48.530;9.200;2024-01-30T04:14:11;11.10;11.10
418;DHT22;49;48.530;9.200;2024-01-30T04:16:37;10.80;11.10
418;DHT22;49;48.530;9.200;2024-01-30T04:19:04;10.90;11.60
418;DHT22;49;48.530;9.200;2024-01-30T04:21:32;11.10;12.50
418;DHT22;49;48.530;9.200;2024-01-30T04:23:59;11.30;11.90
418;DHT22;49;48.530;9.200;2024-01-30T04:26:26;11.60;11.00
418;DHT22;49;48.530;9.200;2024-01-30T04:28:53;11.50;8.60
418;DHT22;49;48.530;9.200;2024-01-30T04:31:20;11.20;10.70
418;DHT22;49;48.530;9.200;2024-01-30T04:33:47;10.60;8.20
418;DHT22;49;48.530;9.200;2024-01-30T04:36:14;10.60;9.70
418;DHT22;49;48.530;9.200;2024-01-30T04:38:42;10.30;11.70
418;DHT22;49;48.530;9.200;2024-01-30T04:41:09;10.20;11.20
418;DHT22;49;48.530;9.200;2024-01-30T04:43:36;10.20;13.30
418;DHT22;49;48.530;9.200;2024-01-30T04:46:04;10.20;13.20
418;DHT22;49;48.530;9.200;2024-01-30T04:48:31;10.40;14.20
418;DHT22;49;48.530;9.200;2024-01-30T04:50:58;10.80;14.90
418;DHT22;49;48.530;9.200;2024-01-30T04:53:27;10.50;9.60
418;DHT22;49;48.530;9.200;2024-01-30T04:55:55;9.70;13.90
418;DHT22;49;48.530;9.200;2024-01-30T04:58:22;10.30;12.90
418;DHT22;49;48.530;9.200;2024-01-30T05:00:49;10.50;13.70
418;DHT22;49;48.530;9.200;2024-01-30T05:03:17;10.90;15.10
418;DHT22;49;48.530;9.200;2024-01-30T05:05:44;10.70;12.20
418;DHT22;49;48.530;9.200;2024-01-30T05:08:11;10.40;10.60
418;DHT22;49;48.530;9.200;2024-01-30T05:10:37;10.00;10.90
418;DHT22;49;48.530;9.200;2024-01-30T05:13:06;9.90;14.00
418;DHT22;49;48.530;9.200;2024-01-30T05:15:33;10.40;13.30
418;DHT22;49;48.530;9.200;2024-01-30T05:18:00;10.70;14.50
418;DHT22;49;48.530;9.200;2024-01-30T05:20:26;10.80;12.30
418;DHT22;49;48.530;9.200;2024-01-30T05:22:54;10.60;10.50
418;DHT22;49;48.530;9.200;2024-01-30T05:25:21;10.60;14.80
418;DHT22;49;48.530;9.200;2024-01-30T05:27:49;11.10;14.30
418;DHT22;49;48.530;9.200;2024-01-30T05:30:17;11.30;13.30
418;DHT22;49;48.530;9.200;2024-01-30T05:32:44;11.50;12.80
418;DHT22;49;48.530;9.200;2024-01-30T05:35:11;11.00;11.10
418;DHT22;49;48.530;9.200;2024-01-30T05:37:37;11.20;13.70
418;DHT22;49;48.530;9.200;2024-01-30T05:40:05;11.40;12.10
418;DHT22;49;48.530;9.200;2024-01-30T05:42:33;11.20;11.60
418;DHT22;49;48.530;9.200;2024-01-30T05:45:00;10.60;10.90
418;DHT22;49;48.530;9.200;2024-01-30T05:47:29;10.90;12.70
418;DHT22;49;48.530;9.200;2024-01-30T05:49:56;10.50;12.40
418;DHT22;49;48.530;9.200;2024-01-30T05:52:23;10.60;12.80
418;DHT22;49;48.530;9.200;2024-01-30T05:54:50;10.50;12.70
418;DHT22;49;48.530;9.200;2024-01-30T05:57:17;10.90;13.30
418;DHT22;49;48.530;9.200;2024-01-30T05:59:44;11.00;11.70
418;DHT22;49;48.530;9.200;2024-01-30T06:02:13;11.30;13.70
418;DHT22;49;48.530;9.200;2024-01-30T06:04:41;11.60;13.10
418;DHT22;49;48.530;9.200;2024-01-30T06:07:10;11.80;12.30
418;DHT22;49;48.530;9.200;2024-01-30T06:09:36;11.30;6.40
418;DHT22;49;48.530;9.200;2024-01-30T06:12:04;9.80;7.40
418;DHT22;49;48.530;9.200;2024-01-30T06:14:31;8.90;10.30
418;DHT22;49;48.530;9.200;2024-01-30T06:16:59;8.50;13.60
418;DHT22;49;48.530;9.200;2024-01-30T06:19:26;9.60;18.90
418;DHT22;49;48.530;9.200;2024-01-30T06:21:54;10.40;15.30
418;DHT22;49;48.530;9.200;2024-01-30T06:24:21;10.40;12.50
418;DHT22;49;48.530;9.200;2024-01-30T06:26:48;10.80;14.70
418;DHT22;49;48.530;9.200;2024-01-30T06:29:14;11.00;12.70
418;DHT22;49;48.530;9.200;2024-01-30T06:31:42;10.80;12.30
418;DHT22;49;48.530;9.200;2024-01-30T06:34:09;10.40;11.20
418;DHT22;49;48.530;9.200;2024-01-30T06:36:36;9.70;9.00
418;DHT22;49;48.530;9.200;2024-01-30T06:39:05;8.90;11.60
418;DHT22;49;48.530;9.200;2024-01-30T06:41:33;8.40;13.00
418;DHT22;49;48.530;9.200;2024-01-30T06:44:02;9.10;18.60
418;DHT22;49;48.530;9.200;2024-01-30T06:46:29;9.00;14.20
418;DHT22;49;48.530;9.200;2024-01-30T06:48:56;9.20;17.80
418;DHT22;49;48.530;9.200;2024-01-30T06:51:23;10.00;17.10
418;DHT22;49;48.530;9.200;2024-01-30T06:53:50;10.50;15.80
418;DHT22;49;48.530;9.200;2024-01-30T06:56:18;10.80;14.30
418;DHT22;49;48.530;9.200;2024-01-30T06:58:46;11.00;13.40
418;DHT22;49;48.530;9.200;2024-01-30T07:01:14;10.90;12.50
418;DHT22;49;48.530;9.200;2024-01-30T07:03:41;10.80;13.40
418;DHT22;49;48.530;9.200;2024-01-30T07:06:08;11.00;13.50
418;DHT22;49;48.530;9.200;2024-01-30T07:08:36;10.90;12.70
418;DHT22;49;48.530;9.200;2024-01-30T07:11:04;10.90;13.60
418;DHT22;49;48.530;9.200;2024-01-30T07:13:33;10.90;12.80
418;DHT22;49;48.530;9.200;2024-01-30T07:16:01;11.00;12.40
418;DHT22;49;48.530;9.200;2024-01-30T07:18:28;10.60;7.90
418;DHT22;49;48.530;9.200;2024-01-30T07:20:55;9.80;10.30
418;DHT22;49;48.530;9.200;2024-01-30T07:23:22;10.00;14.80
418;DHT22;49;48.530;9.200;2024-01-30T07:25:49;10.20;13.90
418;DHT22;49;48.530;9.200;2024-01-30T07:28:16;10.70;13.60
418;DHT22;49;48.530;9.200;2024-01-30T07:30:46;10.40;11.30
418;DHT22;49;48.530;9.200;2024-01-30T07:33:14;10.40;13.90
418;DHT22;49;48.530;9.200;2024-01-30T07:35:41;10.30;11.10
418;DHT22;49;48.530;9.200;2024-01-30T07:38:07;10.10;10.60
418;DHT22;49;48.530;9.200;2024-01-30T07:40:34;10.30;12.40
418;DHT22;49;48.530;9.200;2024-01-30T07:43:01;10.10;8.40
418;DHT22;49;48.530;9.200;2024-01-30T07:45:28;10.10;8.50
418;DHT22;49;48.530;9.200;2024-01-30T07:47:59;10.10;13.60
418;DHT22;49;48.530;9.200;2024-01-30T07:50:26;10.50;12.10
418;DHT22;49;48.530;9.200;2024-01-30T07:52:53;10.30;11.20
418;DHT22;49;48.530;9.200;2024-01-30T07:55:21;10.30;12.60
418;DHT22;49;48.530;9.200;2024-01-30T07:57:50;10.50;10.70
418;DHT22;49;48.530;9.200;2024-01-30T08:00:18;10.60;9.50
418;DHT22;49;48.530;9.200;2024-01-30T08:02:45;10.30;13.30
418;DHT22;49;48.530;9.200;2024-01-30T08:05:13;10.70;10.80
418;DHT22;49;48.530;9.200;2024-01-30T08:07:40;11.10;12.70
418;DHT22;49;48.530;9.200;2024-01-30T08:10:08;11.20;11.90
418;DHT22;49;48.530;9.200;2024-01-30T08:12:35;11.50;11.70
418;DHT22;49;48.530;9.200;2024-01-30T08:15:02;11.50;8.60
418;DHT22;49;48.530;9.200;2024-01-30T08:17:29;11.40;7.30
418;DHT22;49;48.530;9.200;2024-01-30T08:19:56;11.40;8.60
418;DHT22;49;48.530;9.200;2024-01-30T08:22:24;11.30;7.00
418;DHT22;49;48.530;9.200;2024-01-30T08:24:51;11.20;8.20
418;DHT22;49;48.530;9.200;2024-01-30T08:27:18;11.30;9.10
418;DHT22;49;48.530;9.200;2024-01-30T08:29:45;11.20;7.70
418;DHT22;49;48.530;9.200;2024-01-30T08:32:12;11.10;7.00
418;DHT22;49;48.530;9.200;2024-01-30T08:34:39;11.10;10.60
418;DHT22;49;48.530;9.200;2024-01-30T08:37:06;11.20;7.60
418;DHT22;49;48.530;9.200;2024-01-30T08:39:34;11.40;7.10
418;DHT22;49;48.530;9.200;2024-01-30T08:42:01;11.20;9.30
418;DHT22;49;48.530;9.200;2024-01-30T08:44:28;11.10;9.90
418;DHT22;49;48.530;9.200;2024-01-30T08:46:54;10.90;9.30
418;DHT22;49;48.530;9.200;2024-01-30T08:49:21;11.40;11.80
418;DHT22;49;48.530;9.200;2024-01-30T08:51:48;11.70;9.70
418;DHT22;49;48.530;9.200;2024-01-30T08:54:15;11.90;7.10
418;DHT22;49;48.530;9.200;2024-01-30T08:56:44;11.80;7.30
418;DHT22;49;48.530;9.200;2024-01-30T08:59:11;11.80;7.60
418;DHT22;49;48.530;9.200;2024-01-30T09:01:38;12.00;7.90
418;DHT22;49;48.530;9.200;2024-01-30T09:04:05;12.10;7.60
418;DHT22;49;48.530;9.200;2024-01-30T09:06:31;12.30;6.50
418;DHT22;49;48.530;9.200;2024-01-30T09:08:58;11.90;6.80
418;DHT22;49;48.530;9.200;2024-01-30T09:11:25;12.00;9.20
418;DHT22;49;48.530;9.200;2024-01-30T09:13:53;12.10;8.20
418;DHT22;49;48.530;9.200;2024-01-30T09:16:20;12.20;8.60
418;DHT22;49;48.530;9.200;2024-01-30T09:18:47;12.30;6.70
418;DHT22;49;48.530;9.200;2024-01-30T09:21:14;12.10;6.90
418;DHT22;49;48.530;9.200;2024-01-30T09:23:41;12.20;8.40
418;DHT22;49;48.530;9.200;2024-01-30T09:26:07;12.30;8.00
418;DHT22;49;48.530;9.200;2024-01-30T09:28:34;12.50;6.60
418;DHT22;49;48.530;9.200;2024-01-30T09:31:03;12.60;6.70
418;DHT22;49;48.530;9.200;2024-01-30T09:33:30;12.60;6.10
418;DHT22;49;48.530;9.200;2024-01-30T09:35:57;12.70;6.80
418;DHT22;49;48.530;9.200;2024-01-30T09:38:23;13.00;8.10
418;DHT22;49;48.530;9.200;2024-01-30T09:40:54;13.00;6.20
418;DHT22;49;48.530;9.200;2024-01-30T09:43:22;13.00;6.10
418;DHT22;49;48.530;9.200;2024-01-30T09:45:50;13.20;6.50
418;DHT22;49;48.530;9.200;2024-01-30T09:48:19;12.70;6.00
418;DHT22;49;48.530;9.200;2024-01-30T09:50:46;12.90;7.90
418;DHT22;49;48.530;9.200;2024-01-30T09:53:14;13.10;7.00
418;DHT22;49;48.530;9.200;2024-01-30T09:55:43;13.10;5.80
418;DHT22;49;48.530;9.200;2024-01-30T09:58:10;12.80;5.50
418;DHT22;49;48.530;9.200;2024-01-30T10:00:36;13.00;6.70
418;DHT22;49;48.530;9.200;2024-01-30T10:03:04;12.80;6.70
418;DHT22;49;48.530;9.200;2024-01-30T10:05:33;13.00;7.00
418;DHT22;49;48.530;9.200;2024-01-30T10:08:06;13.10;6.80
418;DHT22;49;48.530;9.200;2024-01-30T10:10:33;13.20;7.10
418;DHT22;49;48.530;9.200;2024-01-30T10:13:00;13.30;6.10
418;DHT22;49;48.530;9.200;2024-01-30T10:15:28;13.50;7.30
418;DHT22;49;48.530;9.200;2024-01-30T10:17:55;13.40;6.10
418;DHT22;49;48.530;9.200;2024-01-30T10:20:21;13.20;7.10
418;DHT22;49;48.530;9.200;2024-01-30T10:22:50;13.30;7.50
418;DHT22;49;48.530;9.200;2024-01-30T10:25:17;13.50;6.10
418;DHT22;49;48.530;9.200;2024-01-30T10:27:45;13.50;6.80
418;DHT22;49;48.530;9.200;2024-01-30T10:30:12;13.80;6.00
418;DHT22;49;48.530;9.200;2024-01-30T10:32:39;13.60;6.00
418;DHT22;49;48.530;9.200;2024-01-30T10:35:06;13.30;5.80
418;DHT22;49;48.530;9.200;2024-01-30T10:37:34;13.30;6.10
418;DHT22;49;48.530;9.200;2024-01-30T10:40:03;13.30;5.80
418;DHT22;49;48.530;9.200;2024-01-30T10:42:32;13.50;6.10
418;DHT22;49;48.530;9.200;2024-01-30T10:45:02;13.60;6.60
418;DHT22;49;48.530;9.200;2024-01-30T10:47:34;13.70;6.30
418;DHT22;49;48.530;9.200;2024-01-30T10:50:00;13.90;6.20
418;DHT22;49;48.530;9.200;2024-01-30T10:52:29;14.00;5.40
418;DHT22;49;48.530;9.200;2024-01-30T10:54:56;14.20;5.20
418;DHT22;49;48.530;9.200;2024-01-30T10:57:25;14.00;5.50
418;DHT22;49;48.530;9.200;2024-01-30T10:59:56;13.90;5.00
418;DHT22;49;48.530;9.200;2024-01-30T11:02:23;13.60;5.60
418;DHT22;49;48.530;9.200;2024-01-30T11:04:55;13.60;5.40
418;DHT22;49;48.530;9.200;2024-01-30T11:07:25;13.70;5.30
418;DHT22;49;48.530;9.200;2024-01-30T11:09:52;13.80;5.20
418;DHT22;49;48.530;9.200;2024-01-30T11:12:24;14.00;5.70
418;DHT22;49;48.530;9.200;2024-01-30T11:15:02;14.30;4.40
418;DHT22;49;48.530;9.200;2024-01-30T11:17:40;14.30;5.60
418;DHT22;49;48.530;9.200;2024-01-30T11:20:10;14.20;5.30
418;DHT22;49;48.530;9.200;2024-01-30T11:22:37;14.50;4.90
418;DHT22;49;48.530;9.200;2024-01-30T11:25:04;14.80;4.10
418;DHT22;49;48.530;9.200;2024-01-30T11:27:34;14.80;4.00
418;DHT22;49;48.530;9.200;2024-01-30T11:30:05;14.80;3.90
418;DHT22;49;48.530;9.200;2024-01-30T11:32:33;14.70;3.60
418;DHT22;49;48.530;9.200;2024-01-30T11:35:00;14.80;3.60
418;DHT22;49;48.530;9.200;2024-01-30T11:37:31;14.90;3.30
418;DHT22;49;48.530;9.200;2024-01-30T11:39:58;14.80;2.90
418;DHT22;49;48.530;9.200;2024-01-30T11:42:26;15.00;4.40
418;DHT22;49;48.530;9.200;2024-01-30T11:44:55;15.10;2.30
418;DHT22;49;48.530;9.200;2024-01-30T11:47:22;15.00;2.90
418;DHT22;49;48.530;9.200;2024-01-30T11:49:49;15.10;3.50
418;DHT22;49;48.530;9.200;2024-01-30T11:52:16;15.00;4.40
418;DHT22;49;48.530;9.200;2024-01-30T11:54:43;15.00;3.20
418;DHT22;49;48.530;9.200;2024-01-30T11:57:10;14.80;4.50
418;DHT22;49;48.530;9.200;2024-01-30T11:59:37;15.00;3.90
418;DHT22;49;48.530;9.200;2024-01-30T12:02:06;15.00;3.40
418;DHT22;49;48.530;9.200;2024-01-30T12:04:33;15.40;3.60
418;DHT22;49;48.530;9.200;2024-01-30T12:07:00;15.70;3.00
418;DHT22;49;48.530;9.200;2024-01-30T12:09:27;15.50;2.40
418;DHT22;49;48.530;9.200;2024-01-30T12:11:54;15.60;2.90
418;DHT22;49;48.530;9.200;2024-01-30T12:14:22;15.70;2.60
418;DHT22;49;48.530;9.200;2024-01-30T12:16:51;15.60;2.50
418;DHT22;49;48.530;9.200;2024-01-30T12:19:23;15.60;2.50
418;DHT22;49;48.530;9.200;2024-01-30T12:21:59;15.40;2.40
418;DHT22;49;48.530;9.200;2024-01-30T12:24:26;15.40;3.00
418;DHT22;49;48.530;9.200;2024-01-30T12:26:56;15.40;1.80
418;DHT22;49;48.530;9.200;2024-01-30T12:29:23;15.50;2.30
418;DHT22;49;48.530;9.200;2024-01-30T12:31:53;15.70;2.40
418;DHT22;49;48.530;9.200;2024-01-30T12:34:20;15.70;2.00
418;DHT22;49;48.530;9.200;2024-01-30T12:36:48;15.50;2.40
418;DHT22;49;48.530;9.200;2024-01-30T12:39:15;15.40;2.90
418;DHT22;49;48.530;9.200;2024-01-30T12:41:42;15.50;3.40
418;DHT22;49;48.530;9.200;2024-01-30T12:44:09;15.60;3.90
418;DHT22;49;48.530;9.200;2024-01-30T12:46:36;16.00;3.40
418;DHT22;49;48.530;9.200;2024-01-30T12:49:03;16.20;2.90
418;DHT22;49;48.530;9.200;2024-01-30T12:51:30;16.50;3.10
418;DHT22;49;48.530;9.200;2024-01-30T12:54:05;16.80;1.70
418;DHT22;49;48.530;9.200;2024-01-30T12:56:32;16.90;2.00
418;DHT22;49;48.530;9.200;2024-01-30T12:59:00;17.10;2.00
418;DHT22;49;48.530;9.200;2024-01-30T13:01:26;17.10;2.20
418;DHT22;49;48.530;9.200;2024-01-30T13:03:53;17.10;1.50
418;DHT22;49;48.530;9.200;2024-01-30T13:06:24;17.20;1.70
418;DHT22;49;48.530;9.200;2024-01-30T13:08:50;17.20;1.50
418;DHT22;49;48.530;9.200;2024-01-30T13:11:19;17.20;1.00
418;DHT22;49;48.530;9.200;2024-01-30T13:13:46;17.40;1.00
418;DHT22;49;48.530;9.200;2024-01-30T13:16:12;17.30;1.00
418;DHT22;49;48.530;9.200;2024-01-30T13:18:39;17.50;1.00
418;DHT22;49;48.530;9.200;2024-01-30T13:21:07;17.40;1.00
418;DHT22;49;48.530;9.200;2024-01-30T13:23:33;17.30;1.00
418;DHT22;49;48.530;9.200;2024-01-30T13:26:00;17.60;1.00
418;DHT22;49;48.530;9.200;2024-01-30T13:28:29;17.70;1.00
418;DHT22;49;48.530;9.200;2024-01-30T13:30:56;17.80;1.00
418;DHT22;49;48.530;9.200;2024-01-30T13:33:22;17.60;1.00
418;DHT22;49;48.530;9.200;2024-01-30T13:35:49;17.40;1.20
418;DHT22;49;48.530;9.200;2024-01-30T13:38:16;17.40;1.50
418;DHT22;49;48.530;9.200;2024-01-30T13:40:43;17.40;1.20
418;DHT22;49;48.530;9.200;2024-01-30T13:43:10;17.50;1.00
418;DHT22;49;48.530;9.200;2024-01-30T13:45:38;17.30;1.10
418;DHT22;49;48.530;9.200;2024-01-30T13:48:07;17.40;1.00
418;DHT22;49;48.530;9.200;2024-01-30T13:50:34;17.20;1.00
418;DHT22;49;48.530;9.200;2024-01-30T13:53:02;17.20;1.00
418;DHT22;49;48.530;9.200;2024-01-30T13:55:29;17.40;1.10
418;DHT22;49;48.530;9.200;2024-01-30T13:57:56;17.40;1.10
418;DHT22;49;48.530;9.200;2024-01-30T14:00:23;17.40;1.10
418;DHT22;49;48.530;9.200;2024-01-30T14:02:53;17.40;1.50
418;DHT22;49;48.530;9.200;2024-01-30T14:05:21;17.50;1.70
418;DHT22;49;48.530;9.200;2024-01-30T14:07:47;17.50;1.90
418;DHT22;49;48.530;9.200;2024-01-30T14:10:15;17.40;1.50
418;DHT22;49;48.530;9.200;2024-01-30T14:12:42;17.60;1.00
418;DHT22;49;48.530;9.200;2024-01-30T14:15:10;17.60;1.40
418;DHT22;49;48.530;9.200;2024-01-30T14:17:38;17.50;1.70
418;DHT22;49;48.530;9.200;2024-01-30T14:20:07;17.40;1.70
418;DHT22;49;48.530;9.200;2024-01-30T14:22:34;17.50;1.80
418;DHT22;49;48.530;9.200;2024-01-30T14:25:01;17.50;1.10
418;DHT22;49;48.530;9.200;2024-01-30T14:27:29;17.40;1.40
418;DHT22;49;48.530;9.200;2024-01-30T14:29:56;17.30;1.30
418;DHT22;49;48.530;9.200;2024-01-30T14:32:23;17.40;1.80
418;DHT22;49;48.530;9.200;2024-01-30T14:34:50;17.50;1.50
418;DHT22;49;48.530;9.200;2024-01-30T14:37:19;17.60;1.00
418;DHT22;49;48.530;9.200;2024-01-30T14:39:47;17.60;1.00
418;DHT22;49;48.530;9.200;2024-01-30T14:42:14;17.60;1.00
418;DHT22;49;48.530;9.200;2024-01-30T14:44:41;17.70;1.00
418;DHT22;49;48.530;9.200;2024-01-30T14:47:08;17.70;1.00
418;DHT22;49;48.530;9.200;2024-01-30T14:49:35;17.60;1.00
418;DHT22;49;48.530;9.200;2024-01-30T14:52:02;17.60;1.00
418;DHT22;49;48.530;9.200;2024-01-30T14:54:31;17.60;1.00
418;DHT22;49;48.530;9.200;2024-01-30T14:56:58;17.60;1.00
418;DHT22;49;48.530;9.200;2024-01-30T14:59:26;17.60;1.00
418;DHT22;49;48.530;9.200;2024-01-30T15:01:53;17.40;1.00
418;DHT22;49;48.530;9.200;2024-01-30T15:04:20;17.40;1.00
418;DHT22;49;48.530;9.200;2024-01-30T15:06:47;17.40;1.00
418;DHT22;49;48.530;9.200;2024-01-30T15:09:15;17.20;1.00
418;DHT22;49;48.530;9.200;2024-01-30T15:11:44;17.20;1.10
418;DHT22;49;48.530;9.200;2024-01-30T15:14:11;17.10;1.50
418;DHT22;49;48.530;9.200;2024-01-30T15:16:38;16.70;2.00
418;DHT22;49;48.530;9.200;2024-01-30T15:19:05;16.60;2.90
418;DHT22;49;48.530;9.200;2024-01-30T15:21:32;16.70;3.00
418;DHT22;49;48.530;9.200;2024-01-30T15:23:58;16.90;3.00
418;DHT22;49;48.530;9.200;2024-01-30T15:26:25;16.80;3.10
418;DHT22;49;48.530;9.200;2024-01-30T15:28:53;16.80;3.30
418;DHT22;49;48.530;9.200;2024-01-30T15:31:20;16.70;3.30
418;DHT22;49;48.530;9.200;2024-01-30T15:33:47;16.60;3.20
418;DHT22;49;48.530;9.200;2024-01-30T15:36:14;16.50;3.80
418;DHT22;49;48.530;9.200;2024-01-30T15:38:41;16.50;3.80
418;DHT22;49;48.530;9.200;2024-01-30T15:41:08;16.40;4.40
418;DHT22;49;48.530;9.200;2024-01-30T15:43:35;16.50;4.00
418;DHT22;49;48.530;9.200;2024-01-30T15:46:04;16.30;4.50
418;DHT22;49;48.530;9.200;2024-01-30T15:48:30;16.30;4.50
418;DHT22;49;48.530;9.200;2024-01-30T15:50:57;16.20;5.10
418;DHT22;49;48.530;9.200;2024-01-30T15:53:26;16.20;4.40
418;DHT22;49;48.530;9.200;2024-01-30T15:55:53;16.30;4.00
418;DHT22;49;48.530;9.200;2024-01-30T15:58:19;16.30;4.40
418;DHT22;49;48.530;9.200;2024-01-30T16:00:46;16.30;4.60
418;DHT22;49;48.530;9.200;2024-01-30T16:03:14;16.30;5.20
418;DHT22;49;48.530;9.200;2024-01-30T16:05:41;16.30;5.40
418;DHT22;49;48.530;9.200;2024-01-30T16:08:08;16.30;4.80
418;DHT22;49;48.530;9.200;2024-01-30T16:10:35;16.20;4.50
418;DHT22;49;48.530;9.200;2024-01-30T16:13:02;16.00;3.50
418;DHT22;49;48.530;9.200;2024-01-30T16:15:29;15.80;4.00
418;DHT22;49;48.530;9.200;2024-01-30T16:17:56;15.70;4.50
418;DHT22;49;48.530;9.200;2024-01-30T16:20:24;15.40;4.90
418;DHT22;49;48.530;9.200;2024-01-30T16:22:51;15.40;5.40
418;DHT22;49;48.530;9.200;2024-01-30T16:25:19;15.40;5.50
418;DHT22;49;48.530;9.200;2024-01-30T16:27:46;15.40;6.40
418;DHT22;49;48.530;9.200;2024-01-30T16:30:13;15.50;5.80
418;DHT22;49;48.530;9.200;2024-01-30T16:32:40;15.50;5.50
418;DHT22;49;48.530;9.200;2024-01-30T16:35:07;15.50;6.70
418;DHT22;49;48.530;9.200;2024-01-30T16:37:35;15.70;7.30
418;DHT22;49;48.530;9.200;2024-01-30T16:40:02;15.80;5.20
418;DHT22;49;48.530;9.200;2024-01-30T16:42:30;15.90;6.00
418;DHT22;49;48.530;9.200;2024-01-30T16:44:56;15.80;5.50
418;DHT22;49;48.530;9.200;2024-01-30T16:47:23;15.90;6.20
418;DHT22;49;48.530;9.200;2024-01-30T16:49:50;16.00;5.60
418;DHT22;49;48.530;9.200;2024-01-30T16:52:17;15.90;6.30
418;DHT22;49;48.530;9.200;2024-01-30T16:54:46;16.00;5.60
418;DHT22;49;48.530;9.200;2024-01-30T16:57:13;16.10;6.10
418;DHT22;49;48.530;9.200;2024-01-30T16:59:40;16.20;5.80
418;DHT22;49;48.530;9.200;2024-01-30T17:02:07;16.10;5.50
418;DHT22;49;48.530;9.200;2024-01-30T17:04:34;15.90;4.30